Terminal Aerodrome Forecast
Issued by NWS

Home | Current Version | Previous Version | Text Only | Print | Product List | Glossary On
Versions: 1 2 3 4 5 6 7 8 9 10 11 12 13 14 15
613
FTUS42 KFFC 240134 AAA
TAFRYY
TAF AMD
KRYY 240134Z 2402/2424 12008KT P6SM VCSH BKN007
     FM240600 VRB03KT 6SM -DZ OVC007
     FM240800 35005KT 5SM -DZ OVC007
     FM241400 35007KT P6SM BKN012
     FM241800 35007KT P6SM BKN025
      AMD NOT SKED 2404/2412=

USA.gov is the U.S. government's official web portal to all federal, state and local government web resources and services.